Terminal Aerodrome Forecast
Issued by NWS Newport/Morehead City, NC

Home | Current Version | Previous Version | Graphics & Text | Print | Product List | Glossary On
Versions: 1 2 3 4 5 6 7 8 9 10 11 12 13 14
000
FTUS42 KMHX 031746
TAFEWN
TAF
KEWN 031746Z 0318/0418 21005KT P6SM BKN030
     FM032100 21010KT P6SM VCTS BKN035CB
      TEMPO 0322/0402 3SM TSRA BKN020CB
     FM040400 22007KT P6SM VCSH SCT010 BKN100
     FM041500 24012KT P6SM SCT030=

USA.gov is the U.S. government's official web portal to all federal, state and local government web resources and services.